Time;durP1;ratioP1;P1;durP2;ratioP2;P2;SDS_P1;SDS_P2;PMS_P1;PMS_P2;Temp;Humidity;BMP_temperature;BMP_pressure;BME280_temperature;BME280_humidity;BME280_pressure;Samples;Min_cycle;Max_cycle;Signal;HPM_P1;HPM_P2
2020/12/17 00:00:51;;;;;;;101.47;53.08;;;;;;;;;;5091330;28;20050;-50
2020/12/17 00:03:17;;;;;;;95.78;48.55;;;;;;;;;;5091018;28;20027;-50
2020/12/17 00:05:43;;;;;;;92.82;47.65;;;;;;;;;;5091226;28;20020;-50
2020/12/17 00:08:09;;;;;;;82.65;42.60;;;;;;;;;;5090226;28;20057;-51
2020/12/17 00:10:36;;;;;;;88.85;45.17;;;;;;;;;;5091284;28;20028;-51
2020/12/17 00:13:03;;;;;;;81.00;42.05;;;;;;;;;;5090731;28;20053;-51
2020/12/17 00:15:29;;;;;;;75.85;39.10;;;;;;;;;;5090684;28;20040;-50
2020/12/17 00:17:55;;;;;;;68.50;37.63;;;;;;;;;;5092170;28;20012;-49
2020/12/17 00:20:22;;;;;;;78.00;39.90;;;;;;;;;;5090374;28;20059;-51
2020/12/17 00:22:48;;;;;;;70.63;37.15;;;;;;;;;;5091351;28;20472;-50
2020/12/17 00:25:18;;;;;;;72.07;38.58;;;;;;;;;;5091103;28;20543;-50
2020/12/17 00:27:44;;;;;;;74.68;39.92;;;;;;;;;;5091315;28;20479;-50
2020/12/17 00:30:11;;;;;;;74.95;41.25;;;;;;;;;;5090798;28;20016;-49
2020/12/17 00:32:38;;;;;;;89.85;43.22;;;;;;;;;;5090120;28;20024;-50
2020/12/17 00:35:05;;;;;;;78.85;41.20;;;;;;;;;;5090639;28;20058;-48
2020/12/17 00:37:34;;;;;;;79.63;41.83;;;;;;;;;;5088372;28;20024;-49
2020/12/17 00:40:01;;;;;;;83.43;41.25;;;;;;;;;;5089786;28;20020;-49
2020/12/17 00:42:27;;;;;;;78.43;40.10;;;;;;;;;;5091427;28;20020;-50
2020/12/17 00:44:53;;;;;;;81.25;39.72;;;;;;;;;;5091100;28;20042;-50
2020/12/17 00:47:19;;;;;;;92.57;47.78;;;;;;;;;;5090850;28;20499;-49
2020/12/17 00:49:45;;;;;;;84.55;42.15;;;;;;;;;;5089541;28;20035;-49
2020/12/17 00:52:12;;;;;;;73.53;39.10;;;;;;;;;;5090182;28;20561;-51
2020/12/17 00:54:41;;;;;;;71.57;38.40;;;;;;;;;;5090253;28;20047;-50
2020/12/17 00:57:10;;;;;;;64.47;34.40;;;;;;;;;;5090554;28;20059;-49
2020/12/17 00:59:36;;;;;;;70.03;35.90;;;;;;;;;;5090200;28;20024;-49
2020/12/17 01:02:02;;;;;;;86.75;42.65;;;;;;;;;;5090889;28;20080;-52
2020/12/17 01:04:28;;;;;;;102.97;51.75;;;;;;;;;;5090380;28;20020;-49
2020/12/17 01:06:54;;;;;;;113.65;58.20;;;;;;;;;;5091241;28;20032;-50
2020/12/17 01:09:20;;;;;;;121.82;59.40;;;;;;;;;;5089172;28;20545;-53
2020/12/17 01:11:46;;;;;;;114.10;57.55;;;;;;;;;;5090674;28;20028;-50
2020/12/17 01:14:12;;;;;;;135.82;68.15;;;;;;;;;;5090810;28;20052;-52
2020/12/17 01:16:38;;;;;;;127.95;63.00;;;;;;;;;;5088906;28;20040;-51
2020/12/17 01:19:04;;;;;;;91.03;44.97;;;;;;;;;;5090636;28;20013;-50
2020/12/17 01:21:30;;;;;;;66.78;34.63;;;;;;;;;;5093147;28;20032;-51
2020/12/17 01:23:56;;;;;;;66.13;34.92;;;;;;;;;;5092721;28;20062;-51
2020/12/17 01:26:22;;;;;;;70.32;35.88;;;;;;;;;;5094590;28;20036;-53
2020/12/17 01:28:48;;;;;;;82.55;41.53;;;;;;;;;;5094281;28;20161;-52
2020/12/17 01:31:15;;;;;;;81.93;42.38;;;;;;;;;;5094958;28;20035;-50
2020/12/17 01:33:42;;;;;;;104.43;51.25;;;;;;;;;;5093748;28;20098;-51
2020/12/17 01:36:09;;;;;;;82.65;42.17;;;;;;;;;;5094306;28;20055;-51
2020/12/17 01:38:35;;;;;;;89.15;46.47;;;;;;;;;;5092462;28;20046;-52
2020/12/17 01:41:01;;;;;;;99.30;50.10;;;;;;;;;;5092512;28;20024;-53
2020/12/17 01:43:27;;;;;;;109.45;54.13;;;;;;;;;;5093773;28;20126;-50
2020/12/17 01:45:54;;;;;;;109.75;55.72;;;;;;;;;;5094000;28;20020;-51
2020/12/17 01:48:20;;;;;;;143.65;71.07;;;;;;;;;;5093681;28;20051;-50
2020/12/17 01:50:47;;;;;;;160.20;79.95;;;;;;;;;;5093945;28;20060;-51
2020/12/17 01:53:13;;;;;;;182.27;85.63;;;;;;;;;;5085756;28;20040;-50
2020/12/17 01:55:40;;;;;;;177.55;88.53;;;;;;;;;;5073646;28;20037;-50
2020/12/17 01:58:06;;;;;;;188.65;93.88;;;;;;;;;;5073558;28;20426;-52
2020/12/17 02:00:36;;;;;;;203.02;96.85;;;;;;;;;;5073364;28;20387;-49
2020/12/17 02:03:03;;;;;;;245.35;115.60;;;;;;;;;;5072657;28;20020;-50
2020/12/17 02:05:30;;;;;;;257.05;120.72;;;;;;;;;;5073236;28;20027;-49
2020/12/17 02:08:00;;;;;;;326.75;152.45;;;;;;;;;;5073374;28;20035;-50
2020/12/17 02:10:26;;;;;;;380.15;169.82;;;;;;;;;;5073052;28;20032;-50
2020/12/17 02:12:52;;;;;;;393.75;174.73;;;;;;;;;;5073772;28;20016;-50
2020/12/17 02:15:19;;;;;;;417.35;175.32;;;;;;;;;;5073964;28;20025;-49
2020/12/17 02:17:45;;;;;;;428.25;187.48;;;;;;;;;;5073049;28;20016;-50
2020/12/17 02:20:12;;;;;;;403.15;165.38;;;;;;;;;;5073150;28;20029;-51
2020/12/17 02:22:38;;;;;;;487.73;176.07;;;;;;;;;;5073088;28;20021;-51
2020/12/17 02:25:06;;;;;;;542.67;195.68;;;;;;;;;;5063906;28;20103;-49
2020/12/17 02:27:32;;;;;;;336.38;138.52;;;;;;;;;;5054228;28;20096;-50
2020/12/17 02:29:58;;;;;;;299.35;118.55;;;;;;;;;;5055204;28;20748;-49
2020/12/17 02:32:24;;;;;;;249.55;99.88;;;;;;;;;;5056045;28;20032;-49
2020/12/17 02:34:50;;;;;;;220.55;85.97;;;;;;;;;;5070422;28;20037;-50
2020/12/17 02:37:16;;;;;;;248.07;92.22;;;;;;;;;;5073181;28;20468;-50
2020/12/17 02:39:42;;;;;;;226.98;87.68;;;;;;;;;;5072168;28;20047;-49
2020/12/17 02:42:08;;;;;;;223.75;86.40;;;;;;;;;;5046880;28;20044;-51
2020/12/17 02:44:34;;;;;;;232.07;89.03;;;;;;;;;;5072565;28;20054;-51
2020/12/17 02:47:00;;;;;;;379.85;109.22;;;;;;;;;;5072865;28;20021;-53
2020/12/17 02:49:27;;;;;;;337.42;122.85;;;;;;;;;;5073396;28;20107;-51
2020/12/17 02:51:53;;;;;;;338.42;123.47;;;;;;;;;;5070033;28;20039;-51
2020/12/17 02:54:19;;;;;;;488.27;135.35;;;;;;;;;;5081196;28;20077;-53
2020/12/17 02:56:45;;;;;;;351.30;130.30;;;;;;;;;;5081132;28;20107;-50
2020/12/17 02:59:11;;;;;;;326.92;123.97;;;;;;;;;;5081313;28;20083;-50
2020/12/17 03:01:37;;;;;;;469.00;125.32;;;;;;;;;;5077710;28;20029;-53
2020/12/17 03:04:03;;;;;;;393.90;120.85;;;;;;;;;;5078925;28;20024;-52
2020/12/17 03:06:29;;;;;;;413.42;125.40;;;;;;;;;;5083168;28;20027;-53
2020/12/17 03:08:55;;;;;;;488.70;156.50;;;;;;;;;;5074320;28;20468;-50
2020/12/17 03:11:21;;;;;;;536.95;167.30;;;;;;;;;;5083067;28;20113;-50
2020/12/17 03:13:47;;;;;;;462.98;136.57;;;;;;;;;;5080724;28;20100;-50
2020/12/17 03:16:13;;;;;;;429.20;123.80;;;;;;;;;;5081011;28;20472;-51
2020/12/17 03:18:39;;;;;;;343.25;105.85;;;;;;;;;;5073683;28;20036;-51
2020/12/17 03:21:05;;;;;;;299.13;97.85;;;;;;;;;;5078037;28;20033;-51
2020/12/17 03:23:32;;;;;;;361.08;99.10;;;;;;;;;;5083846;28;20020;-51
2020/12/17 03:25:58;;;;;;;381.00;107.43;;;;;;;;;;5078584;28;20038;-51
2020/12/17 03:28:24;;;;;;;404.25;113.18;;;;;;;;;;5082713;28;20048;-51
2020/12/17 03:30:50;;;;;;;352.58;95.90;;;;;;;;;;5079956;28;20056;-52
2020/12/17 03:33:16;;;;;;;351.52;91.95;;;;;;;;;;5081076;28;20028;-51
2020/12/17 03:35:42;;;;;;;332.95;97.45;;;;;;;;;;5081867;28;20034;-51
2020/12/17 03:38:08;;;;;;;343.98;93.63;;;;;;;;;;5082274;28;20104;-51
2020/12/17 03:40:34;;;;;;;406.60;110.95;;;;;;;;;;5078964;28;20036;-50
2020/12/17 03:43:00;;;;;;;416.58;123.32;;;;;;;;;;5071497;28;20025;-51
2020/12/17 03:45:26;;;;;;;285.60;96.75;;;;;;;;;;5072000;28;20115;-51
2020/12/17 03:47:52;;;;;;;348.63;104.60;;;;;;;;;;5072497;28;20024;-51
2020/12/17 03:50:18;;;;;;;291.08;99.60;;;;;;;;;;5072625;28;20029;-54
2020/12/17 03:52:44;;;;;;;412.40;115.10;;;;;;;;;;5075857;28;20035;-50
2020/12/17 03:55:10;;;;;;;358.05;109.10;;;;;;;;;;5092461;28;20036;-51
2020/12/17 03:57:36;;;;;;;271.60;94.93;;;;;;;;;;5092400;28;20032;-52
2020/12/17 04:00:03;;;;;;;424.20;116.97;;;;;;;;;;5092212;28;20023;-50
2020/12/17 04:02:29;;;;;;;417.00;113.80;;;;;;;;;;5092088;28;20016;-51
2020/12/17 04:04:55;;;;;;;283.15;93.97;;;;;;;;;;5091995;28;20472;-50
2020/12/17 04:07:21;;;;;;;266.05;88.15;;;;;;;;;;5092135;28;20035;-50
2020/12/17 04:09:48;;;;;;;267.35;92.60;;;;;;;;;;5091727;28;20032;-51
2020/12/17 04:12:14;;;;;;;252.88;85.95;;;;;;;;;;5091741;28;20052;-51
2020/12/17 04:14:41;;;;;;;254.82;84.20;;;;;;;;;;5091759;28;20027;-50
2020/12/17 04:17:07;;;;;;;239.88;87.65;;;;;;;;;;5092306;28;20036;-51
2020/12/17 04:19:33;;;;;;;234.07;82.40;;;;;;;;;;5092037;28;20023;-50
2020/12/17 04:21:59;;;;;;;268.40;84.75;;;;;;;;;;5091803;28;20074;-51
2020/12/17 04:24:25;;;;;;;258.00;80.20;;;;;;;;;;5092162;28;20036;-51
2020/12/17 04:26:51;;;;;;;244.90;84.00;;;;;;;;;;5091969;28;20027;-53
2020/12/17 04:29:18;;;;;;;323.77;95.95;;;;;;;;;;5091904;28;20017;-51
2020/12/17 04:31:44;;;;;;;236.45;82.60;;;;;;;;;;5091345;28;20388;-53
2020/12/17 04:34:10;;;;;;;253.40;88.68;;;;;;;;;;5091273;28;20028;-50
2020/12/17 04:36:36;;;;;;;349.65;130.27;;;;;;;;;;5090608;28;20043;-51
2020/12/17 04:39:03;;;;;;;355.02;112.63;;;;;;;;;;5091238;28;20384;-51
2020/12/17 04:41:31;;;;;;;315.48;117.15;;;;;;;;;;5086446;28;20016;-49
2020/12/17 04:43:57;;;;;;;287.75;86.50;;;;;;;;;;5084852;28;20032;-52
2020/12/17 04:46:23;;;;;;;201.95;69.40;;;;;;;;;;5088612;28;20107;-53
2020/12/17 04:48:51;;;;;;;227.50;72.95;;;;;;;;;;5091670;28;20077;-50
2020/12/17 04:51:18;;;;;;;173.25;63.45;;;;;;;;;;5092100;28;20131;-54
2020/12/17 04:53:49;;;;;;;176.60;62.78;;;;;;;;;;5091549;28;20452;-50
2020/12/17 04:56:16;;;;;;;195.13;66.57;;;;;;;;;;5095078;28;20149;-50
2020/12/17 04:58:49;;;;;;;165.32;61.50;;;;;;;;;;5095805;28;20498;-50
2020/12/17 05:01:17;;;;;;;196.00;67.03;;;;;;;;;;5095566;28;20073;-51
2020/12/17 05:03:47;;;;;;;215.98;71.53;;;;;;;;;;5095578;28;20024;-54
2020/12/17 05:06:18;;;;;;;183.98;67.07;;;;;;;;;;5095031;28;20024;-51
2020/12/17 05:08:45;;;;;;;170.05;60.90;;;;;;;;;;5091181;28;20024;-51
2020/12/17 05:11:11;;;;;;;150.50;56.25;;;;;;;;;;5095291;28;20483;-53
2020/12/17 05:13:37;;;;;;;136.88;54.83;;;;;;;;;;5095216;28;20016;-53
2020/12/17 05:16:03;;;;;;;146.40;57.67;;;;;;;;;;5094263;28;20036;-49
2020/12/17 05:18:29;;;;;;;197.93;71.35;;;;;;;;;;5091906;28;20023;-50
2020/12/17 05:20:55;;;;;;;140.27;55.88;;;;;;;;;;5093448;28;20078;-51
2020/12/17 05:23:23;;;;;;;177.65;66.43;;;;;;;;;;5091264;28;20383;-50
2020/12/17 05:25:51;;;;;;;168.68;65.63;;;;;;;;;;5088993;28;20476;-50
2020/12/17 05:28:17;;;;;;;218.00;59.58;;;;;;;;;;5084796;28;20218;-51
2020/12/17 05:30:43;;;;;;;182.85;62.80;;;;;;;;;;5091692;28;20078;-51
2020/12/17 05:33:09;;;;;;;166.93;60.42;;;;;;;;;;5094288;28;20024;-50
2020/12/17 05:35:36;;;;;;;154.60;62.42;;;;;;;;;;5094131;28;20028;-51
2020/12/17 05:38:04;;;;;;;228.05;77.65;;;;;;;;;;5094208;28;20023;-53
2020/12/17 05:40:35;;;;;;;185.88;63.25;;;;;;;;;;5093318;28;20085;-51
2020/12/17 05:43:01;;;;;;;195.20;63.70;;;;;;;;;;5094223;28;20821;-49
2020/12/17 05:45:27;;;;;;;188.75;69.47;;;;;;;;;;5094885;28;20047;-50
2020/12/17 05:48:13;;;;;;;244.68;72.25;;;;;;;;;;5094952;28;20377;-51
2020/12/17 05:50:59;;;;;;;307.58;115.88;;;;;;;;;;5094064;28;20384;-50
2020/12/17 05:53:30;;;;;;;175.07;55.33;;;;;;;;;;5084240;28;20056;-51
2020/12/17 05:56:06;;;;;;;132.40;46.42;;;;;;;;;;5073594;28;20480;-51
2020/12/17 05:58:42;;;;;;;164.23;48.95;;;;;;;;;;5074051;28;20063;-50
2020/12/17 06:01:12;;;;;;;128.75;40.65;;;;;;;;;;5074021;28;20024;-52
2020/12/17 06:03:39;;;;;;;100.05;43.35;;;;;;;;;;5073942;28;20036;-53
2020/12/17 06:06:07;;;;;;;92.22;40.42;;;;;;;;;;5072612;28;20060;-50
2020/12/17 06:08:37;;;;;;;95.18;41.45;;;;;;;;;;5073799;28;20032;-51
2020/12/17 06:11:04;;;;;;;113.63;42.67;;;;;;;;;;5068855;28;20039;-50
2020/12/17 06:13:33;;;;;;;280.98;106.97;;;;;;;;;;5073475;28;20121;-51
2020/12/17 06:16:02;;;;;;;180.35;69.68;;;;;;;;;;5077448;28;20039;-51
2020/12/17 06:18:31;;;;;;;139.38;51.13;;;;;;;;;;5093972;28;20028;-50
2020/12/17 06:20:57;;;;;;;169.70;60.20;;;;;;;;;;5083415;28;20028;-50
2020/12/17 06:23:24;;;;;;;194.27;77.03;;;;;;;;;;5082510;28;20472;-50
2020/12/17 06:25:50;;;;;;;217.75;91.40;;;;;;;;;;5078577;28;20119;-53
2020/12/17 06:28:36;;;;;;;156.57;55.28;;;;;;;;;;5080673;28;20064;-50
2020/12/17 06:31:03;;;;;;;151.50;55.10;;;;;;;;;;5093696;28;20028;-51
2020/12/17 06:33:29;;;;;;;566.30;162.05;;;;;;;;;;5085700;28;20020;-51
2020/12/17 06:35:59;;;;;;;283.73;105.50;;;;;;;;;;5073246;28;20046;-51
2020/12/17 06:38:26;;;;;;;187.90;77.18;;;;;;;;;;5073689;28;20032;-50
2020/12/17 06:40:53;;;;;;;208.57;73.45;;;;;;;;;;5073448;28;20020;-50
2020/12/17 06:43:31;;;;;;;196.65;76.35;;;;;;;;;;5077778;28;20054;-50
2020/12/17 06:45:57;;;;;;;173.30;59.17;;;;;;;;;;5093532;28;20075;-50
2020/12/17 06:48:33;;;;;;;171.88;74.82;;;;;;;;;;5093137;28;20016;-50
2020/12/17 06:51:00;;;;;;;172.20;71.45;;;;;;;;;;5093449;28;20035;-50
2020/12/17 06:53:39;;;;;;;202.48;87.20;;;;;;;;;;5075057;28;20078;-50
2020/12/17 06:56:05;;;;;;;152.98;58.72;;;;;;;;;;5072798;28;20094;-49
2020/12/17 06:58:31;;;;;;;138.52;49.10;;;;;;;;;;5073019;28;20047;-47
2020/12/17 07:00:57;;;;;;;108.03;49.78;;;;;;;;;;5073010;28;20048;-50
2020/12/17 07:03:43;;;;;;;148.18;53.03;;;;;;;;;;5072895;28;20468;-50
2020/12/17 07:06:27;;;;;;;201.50;75.03;;;;;;;;;;5072922;28;20024;-49
2020/12/17 07:08:54;;;;;;;171.88;70.57;;;;;;;;;;5072833;28;20095;-49
2020/12/17 07:11:38;;;;;;;175.05;69.72;;;;;;;;;;5072774;28;20100;-49
2020/12/17 07:14:05;;;;;;;155.60;66.10;;;;;;;;;;5072804;28;20112;-50
2020/12/17 07:16:33;;;;;;;167.23;59.47;;;;;;;;;;5072732;28;20029;-50
2020/12/17 07:19:18;;;;;;;137.77;55.15;;;;;;;;;;5072730;28;20104;-49
2020/12/17 07:21:44;;;;;;;150.75;64.65;;;;;;;;;;5072643;28;20031;-53
2020/12/17 07:24:21;;;;;;;132.32;56.47;;;;;;;;;;5072267;28;20028;-53
2020/12/17 07:26:48;;;;;;;141.80;57.88;;;;;;;;;;5072576;28;20044;-52
2020/12/17 07:29:14;;;;;;;127.85;55.95;;;;;;;;;;5072107;28;20024;-53
2020/12/17 07:31:40;;;;;;;117.43;51.85;;;;;;;;;;5072225;28;20025;-52
2020/12/17 07:34:16;;;;;;;106.60;48.95;;;;;;;;;;5072304;28;20029;-53
2020/12/17 07:36:46;;;;;;;98.82;49.00;;;;;;;;;;5072391;28;20028;-53
2020/12/17 07:39:13;;;;;;;129.60;60.97;;;;;;;;;;5072198;28;20024;-53
2020/12/17 07:41:39;;;;;;;118.88;57.55;;;;;;;;;;5072288;28;20047;-53
2020/12/17 07:44:05;;;;;;;147.00;65.38;;;;;;;;;;5072329;28;20021;-52
2020/12/17 07:46:34;;;;;;;130.00;57.83;;;;;;;;;;5072346;28;20027;-53
2020/12/17 07:49:02;;;;;;;109.20;49.80;;;;;;;;;;5072225;28;20056;-53
2020/12/17 07:51:29;;;;;;;111.68;51.30;;;;;;;;;;5072254;28;20016;-51
2020/12/17 07:53:55;;;;;;;134.27;58.17;;;;;;;;;;5085506;28;20399;-51
2020/12/17 07:56:22;;;;;;;139.38;62.92;;;;;;;;;;5092678;28;20071;-52
2020/12/17 07:58:49;;;;;;;160.75;62.70;;;;;;;;;;5092500;28;20052;-53
2020/12/17 08:01:15;;;;;;;170.13;62.50;;;;;;;;;;5092343;28;20027;-53
2020/12/17 08:03:44;;;;;;;165.32;68.90;;;;;;;;;;5092128;28;20023;-53
2020/12/17 08:06:11;;;;;;;159.57;68.88;;;;;;;;;;5092420;28;20161;-51
2020/12/17 08:08:39;;;;;;;144.85;61.03;;;;;;;;;;5092333;28;20020;-53
2020/12/17 08:11:05;;;;;;;137.23;58.30;;;;;;;;;;5092241;28;20028;-53
2020/12/17 08:13:32;;;;;;;148.75;62.08;;;;;;;;;;5092117;28;20024;-50
2020/12/17 08:16:04;;;;;;;164.68;83.30;;;;;;;;;;5092197;28;20028;-52
2020/12/17 08:18:31;;;;;;;119.70;53.80;;;;;;;;;;5092035;28;20036;-52
2020/12/17 08:21:08;;;;;;;133.32;62.13;;;;;;;;;;5092035;28;20073;-51
2020/12/17 08:23:35;;;;;;;133.98;60.47;;;;;;;;;;5091976;28;20036;-51
2020/12/17 08:26:02;;;;;;;131.88;56.97;;;;;;;;;;5091658;28;20020;-51
2020/12/17 08:28:33;;;;;;;143.50;68.95;;;;;;;;;;5091989;28;20123;-51
2020/12/17 08:31:25;;;;;;;157.73;69.38;;;;;;;;;;5095250;28;20024;-53
2020/12/17 08:33:52;;;;;;;122.43;54.00;;;;;;;;;;5092577;28;20071;-53
2020/12/17 08:36:21;;;;;;;132.43;56.08;;;;;;;;;;5095878;28;20028;-54
2020/12/17 08:38:53;;;;;;;149.85;64.15;;;;;;;;;;5096201;28;20028;-53
2020/12/17 08:41:20;;;;;;;168.48;68.60;;;;;;;;;;5095895;28;20024;-53
2020/12/17 08:43:47;;;;;;;169.63;69.82;;;;;;;;;;5096027;28;20024;-53
2020/12/17 08:46:17;;;;;;;160.52;68.20;;;;;;;;;;5095834;28;20016;-54
2020/12/17 08:48:44;;;;;;;176.48;72.00;;;;;;;;;;5096047;28;20064;-52
2020/12/17 08:51:11;;;;;;;206.35;96.10;;;;;;;;;;5095600;28;20102;-53
2020/12/17 08:53:41;;;;;;;200.88;93.47;;;;;;;;;;5095158;28;20525;-52
2020/12/17 08:56:07;;;;;;;210.20;82.53;;;;;;;;;;5095347;28;20040;-53
2020/12/17 08:58:42;;;;;;;207.70;89.63;;;;;;;;;;5095825;28;20031;-53
2020/12/17 09:01:13;;;;;;;282.98;131.30;;;;;;;;;;5095870;28;20468;-53
2020/12/17 09:03:49;;;;;;;208.25;85.10;;;;;;;;;;5095754;28;20020;-53
2020/12/17 09:06:15;;;;;;;320.98;143.07;;;;;;;;;;5095351;28;20464;-54
2020/12/17 09:08:41;;;;;;;266.40;120.93;;;;;;;;;;5096182;28;20511;-53
2020/12/17 09:11:27;;;;;;;228.35;98.88;;;;;;;;;;5095620;28;20028;-54
2020/12/17 09:14:07;;;;;;;220.82;84.97;;;;;;;;;;5095653;28;20023;-52
2020/12/17 09:16:34;;;;;;;237.73;102.63;;;;;;;;;;5095407;28;20510;-54
2020/12/17 09:19:06;;;;;;;222.73;93.88;;;;;;;;;;5095338;28;20099;-53
2020/12/17 09:21:32;;;;;;;;;;;;;;;;;;5095428;28;20501;-53
2020/12/17 09:24:01;;;;;;;251.13;94.63;;;;;;;;;;5094601;28;19904;-52
2020/12/17 09:26:28;;;;;;;263.95;107.57;;;;;;;;;;5095059;28;20036;-52
2020/12/17 09:28:56;;;;;;;312.60;134.05;;;;;;;;;;5094614;28;20020;-53
2020/12/17 09:31:27;;;;;;;287.60;122.65;;;;;;;;;;5095227;28;20038;-53
2020/12/17 09:34:25;;;;;;;253.07;96.80;;;;;;;;;;5094934;28;20468;-54
2020/12/17 09:36:57;;;;;;;278.55;106.95;;;;;;;;;;5012783;28;20568;-52
2020/12/17 09:39:23;;;;;;;297.67;103.78;;;;;;;;;;5012650;28;20088;-54
2020/12/17 09:41:56;;;;;;;276.45;103.30;;;;;;;;;;5011639;28;20529;-53
2020/12/17 09:44:29;;;;;;;263.50;98.70;;;;;;;;;;5012583;28;20034;-54
2020/12/17 09:46:55;;;;;;;247.18;93.53;;;;;;;;;;5012654;28;20041;-53
2020/12/17 09:49:23;;;;;;;248.68;93.65;;;;;;;;;;5012496;28;20030;-53
2020/12/17 09:51:57;;;;;;;250.13;102.13;;;;;;;;;;5012150;28;20033;-52
2020/12/17 09:54:24;;;;;;;288.70;113.07;;;;;;;;;;5012166;28;20061;-53
2020/12/17 09:57:03;;;;;;;264.15;111.68;;;;;;;;;;5012424;28;20044;-52
2020/12/17 09:59:29;;;;;;;263.05;111.85;;;;;;;;;;5012138;28;20104;-52
2020/12/17 10:02:01;;;;;;;275.20;111.32;;;;;;;;;;5012516;28;20022;-51
2020/12/17 10:04:27;;;;;;;260.02;108.43;;;;;;;;;;4996013;28;20025;-51
2020/12/17 10:06:54;;;;;;;259.23;102.38;;;;;;;;;;5012160;28;20515;-51
2020/12/17 10:09:21;;;;;;;245.90;103.30;;;;;;;;;;5012200;28;20039;-51
2020/12/17 10:11:50;;;;;;;272.98;109.28;;;;;;;;;;5031393;28;20028;-53
2020/12/17 10:14:17;;;;;;;243.75;100.13;;;;;;;;;;5094297;28;20091;-52
2020/12/17 10:16:43;;;;;;;232.93;95.60;;;;;;;;;;5094099;28;20119;-52
2020/12/17 10:19:09;;;;;;;215.38;90.82;;;;;;;;;;5094274;28;20021;-51
2020/12/17 10:21:36;;;;;;;244.43;104.15;;;;;;;;;;5093786;28;20031;-54
2020/12/17 10:24:02;;;;;;;270.17;118.10;;;;;;;;;;5093681;28;20024;-53
2020/12/17 10:26:29;;;;;;;264.27;113.72;;;;;;;;;;5093915;28;20229;-54
2020/12/17 10:28:55;;;;;;;220.55;93.13;;;;;;;;;;5093734;28;20515;-53
2020/12/17 10:31:21;;;;;;;223.13;93.28;;;;;;;;;;5093958;28;20024;-53
2020/12/17 10:33:47;;;;;;;225.57;95.25;;;;;;;;;;5093596;28;20102;-54
2020/12/17 10:36:13;;;;;;;242.50;103.93;;;;;;;;;;5093532;28;20028;-52
2020/12/17 10:38:39;;;;;;;249.35;108.55;;;;;;;;;;5093748;28;20038;-52
2020/12/17 10:41:05;;;;;;;249.20;102.75;;;;;;;;;;5093632;28;20066;-52
2020/12/17 10:43:31;;;;;;;303.67;131.13;;;;;;;;;;5093701;28;20024;-54
2020/12/17 10:45:57;;;;;;;282.23;123.88;;;;;;;;;;5093510;28;20024;-54
2020/12/17 10:48:23;;;;;;;302.58;129.00;;;;;;;;;;5093546;28;20555;-54
2020/12/17 10:50:50;;;;;;;307.48;130.35;;;;;;;;;;5093673;28;20111;-53
2020/12/17 10:53:16;;;;;;;264.92;110.50;;;;;;;;;;5092706;28;20542;-51
2020/12/17 10:55:42;;;;;;;251.23;105.55;;;;;;;;;;5093653;28;20476;-53
2020/12/17 10:58:08;;;;;;;255.95;113.03;;;;;;;;;;5093189;28;20417;-54
2020/12/17 11:00:35;;;;;;;329.40;155.45;;;;;;;;;;5093823;28;20036;-53
2020/12/17 11:03:02;;;;;;;280.13;121.65;;;;;;;;;;5092609;28;20024;-49
2020/12/17 11:05:28;;;;;;;267.63;117.28;;;;;;;;;;5092376;28;20023;-50
2020/12/17 11:07:54;;;;;;;271.45;118.15;;;;;;;;;;5092415;28;20024;-50
2020/12/17 11:10:20;;;;;;;267.40;116.80;;;;;;;;;;5092333;28;20035;-54
2020/12/17 11:12:46;;;;;;;238.40;105.50;;;;;;;;;;5092124;28;20439;-52
2020/12/17 11:15:12;;;;;;;252.95;112.68;;;;;;;;;;5092217;28;20474;-54
2020/12/17 11:17:38;;;;;;;289.92;125.60;;;;;;;;;;5092169;28;20028;-54
2020/12/17 11:20:04;;;;;;;293.02;133.27;;;;;;;;;;5092123;28;20023;-51
2020/12/17 11:22:31;;;;;;;269.50;124.25;;;;;;;;;;5088874;28;20466;-50
2020/12/17 11:24:57;;;;;;;252.80;115.68;;;;;;;;;;5092353;28;20036;-51
2020/12/17 11:27:23;;;;;;;249.27;115.60;;;;;;;;;;5092084;28;20372;-51
2020/12/17 11:29:49;;;;;;;228.43;107.65;;;;;;;;;;5092275;28;20383;-54
2020/12/17 11:32:19;;;;;;;222.15;106.43;;;;;;;;;;5092436;28;20069;-53
2020/12/17 11:34:45;;;;;;;211.95;100.85;;;;;;;;;;5091888;28;20092;-53
2020/12/17 11:37:13;;;;;;;200.57;101.75;;;;;;;;;;5092329;28;20032;-55
2020/12/17 11:39:39;;;;;;;204.20;103.03;;;;;;;;;;5091680;28;20029;-54
2020/12/17 11:42:05;;;;;;;207.10;104.97;;;;;;;;;;5091551;28;20082;-54
2020/12/17 11:44:31;;;;;;;212.20;112.88;;;;;;;;;;5090919;28;20024;-53
2020/12/17 11:46:57;;;;;;;217.88;110.40;;;;;;;;;;5091706;28;20024;-52
2020/12/17 11:49:23;;;;;;;212.32;111.45;;;;;;;;;;5091710;28;20063;-54
2020/12/17 11:51:53;;;;;;;207.48;108.47;;;;;;;;;;5090845;28;20019;-54
2020/12/17 11:54:19;;;;;;;208.07;108.65;;;;;;;;;;5091569;28;20056;-54
2020/12/17 11:56:46;;;;;;;223.15;114.57;;;;;;;;;;5091415;28;20523;-55
2020/12/17 11:59:12;;;;;;;200.85;107.85;;;;;;;;;;5091490;28;20099;-54
2020/12/17 12:01:41;;;;;;;208.70;111.63;;;;;;;;;;5091726;28;20099;-55
2020/12/17 12:04:07;;;;;;;215.20;115.20;;;;;;;;;;5090044;28;20456;-53
2020/12/17 12:06:34;;;;;;;222.65;114.30;;;;;;;;;;5091022;28;20020;-54
2020/12/17 12:09:00;;;;;;;212.70;116.47;;;;;;;;;;5091422;28;20464;-51
2020/12/17 12:11:26;;;;;;;220.15;119.15;;;;;;;;;;5076451;28;20062;-52
2020/12/17 12:13:52;;;;;;;244.07;127.38;;;;;;;;;;5073346;28;20021;-54
2020/12/17 12:16:19;;;;;;;222.82;116.20;;;;;;;;;;5071707;28;20036;-53
2020/12/17 12:18:45;;;;;;;235.82;124.13;;;;;;;;;;5072484;28;20030;-53
2020/12/17 12:21:14;;;;;;;239.52;123.90;;;;;;;;;;5071137;28;20036;-51
2020/12/17 12:23:42;;;;;;;219.38;116.60;;;;;;;;;;5073978;28;20035;-55
2020/12/17 12:26:08;;;;;;;205.00;110.03;;;;;;;;;;5091125;28;20046;-52
2020/12/17 12:28:34;;;;;;;213.15;115.97;;;;;;;;;;5073175;28;20421;-52
2020/12/17 12:31:02;;;;;;;218.50;114.38;;;;;;;;;;5072311;28;20039;-52
2020/12/17 12:33:29;;;;;;;210.30;115.57;;;;;;;;;;5072780;28;20048;-52
2020/12/17 12:35:55;;;;;;;192.93;103.28;;;;;;;;;;5075657;28;20108;-54
2020/12/17 12:38:22;;;;;;;185.50;100.10;;;;;;;;;;5084035;28;20021;-52
2020/12/17 12:40:48;;;;;;;186.43;103.55;;;;;;;;;;5074828;28;20070;-54
2020/12/17 12:43:14;;;;;;;186.45;98.97;;;;;;;;;;5072159;28;20094;-55
2020/12/17 12:45:40;;;;;;;204.45;111.03;;;;;;;;;;5073086;28;20024;-52
2020/12/17 12:48:06;;;;;;;223.82;120.40;;;;;;;;;;5073048;28;20431;-54
2020/12/17 12:50:32;;;;;;;213.63;117.65;;;;;;;;;;5091207;28;20024;-51
2020/12/17 12:52:58;;;;;;;193.35;105.25;;;;;;;;;;5090486;28;20044;-54
2020/12/17 12:55:24;;;;;;;181.43;100.28;;;;;;;;;;5091454;28;20449;-55
2020/12/17 12:57:52;;;;;;;193.38;104.57;;;;;;;;;;5090673;28;20020;-55
2020/12/17 13:00:19;;;;;;;176.52;98.85;;;;;;;;;;5091104;28;20032;-52
2020/12/17 13:02:45;;;;;;;165.02;91.53;;;;;;;;;;5091097;28;20031;-55
2020/12/17 13:05:11;;;;;;;156.85;87.22;;;;;;;;;;5090937;28;20023;-54
2020/12/17 13:07:37;;;;;;;152.20;90.03;;;;;;;;;;5091130;28;20073;-54
2020/12/17 13:10:03;;;;;;;158.55;91.95;;;;;;;;;;5090868;28;20020;-53
2020/12/17 13:12:29;;;;;;;161.38;93.32;;;;;;;;;;5091183;28;20335;-54
2020/12/17 13:14:55;;;;;;;177.32;101.85;;;;;;;;;;5091122;28;20463;-55
2020/12/17 13:17:21;;;;;;;184.93;109.63;;;;;;;;;;5095246;28;20020;-55
2020/12/17 13:19:47;;;;;;;205.65;116.50;;;;;;;;;;5094448;28;20536;-54
2020/12/17 13:22:13;;;;;;;207.57;120.05;;;;;;;;;;5094010;28;20115;-54
2020/12/17 13:24:39;;;;;;;202.77;117.13;;;;;;;;;;5095069;28;20115;-54
2020/12/17 13:27:05;;;;;;;202.07;119.95;;;;;;;;;;5094614;28;20023;-54
2020/12/17 13:29:32;;;;;;;210.85;123.35;;;;;;;;;;5093776;28;20024;-55
2020/12/17 13:31:58;;;;;;;212.75;126.95;;;;;;;;;;5094327;28;20461;-55
2020/12/17 13:34:24;;;;;;;214.50;124.43;;;;;;;;;;5093866;28;20047;-54
2020/12/17 13:36:50;;;;;;;211.65;125.97;;;;;;;;;;5093418;28;20107;-55
2020/12/17 13:39:18;;;;;;;208.00;123.68;;;;;;;;;;5088727;28;20056;-53
2020/12/17 13:41:48;;;;;;;218.02;128.50;;;;;;;;;;5093781;28;20494;-53
2020/12/17 13:44:15;;;;;;;212.25;126.55;;;;;;;;;;5093813;28;20456;-54
2020/12/17 13:46:41;;;;;;;211.32;128.70;;;;;;;;;;5093374;28;20383;-55
2020/12/17 13:49:07;;;;;;;207.38;125.05;;;;;;;;;;5092110;28;20479;-53
2020/12/17 13:51:33;;;;;;;209.50;125.93;;;;;;;;;;5078184;28;20071;-54
2020/12/17 13:53:59;;;;;;;205.15;122.82;;;;;;;;;;5076575;28;20433;-53
2020/12/17 13:56:28;;;;;;;223.00;132.85;;;;;;;;;;5074632;28;20060;-55
2020/12/17 13:58:54;;;;;;;217.35;131.55;;;;;;;;;;5074524;28;20040;-53
2020/12/17 14:01:20;;;;;;;218.20;128.90;;;;;;;;;;5079249;28;20382;-54
2020/12/17 14:03:48;;;;;;;223.95;128.25;;;;;;;;;;5073810;28;20012;-52